Time;durP1;ratioP1;P1;durP2;ratioP2;P2;SDS_P1;SDS_P2;PMS_P1;PMS_P2;Temp;Humidity;BMP_temperature;BMP_pressure;BME280_temperature;BME280_humidity;BME280_pressure;Samples;Min_cycle;Max_cycle;Signal;HPM_P1;HPM_P2
2023/02/17 00:01:30;;;;;;;4.70;3.20;;;6.90;99.90;;;;;;4936874;29;20054;-91
2023/02/17 00:03:58;;;;;;;8.30;4.40;;;7.00;99.90;;;;;;4937508;29;20047;-92
2023/02/17 00:06:29;;;;;;;5.32;4.90;;;7.10;99.90;;;;;;4936921;29;20040;-91
2023/02/17 00:08:58;;;;;;;7.85;4.72;;;7.20;99.90;;;;;;4919876;29;20043;-91
2023/02/17 00:11:27;;;;;;;10.52;3.17;;;7.20;99.90;;;;;;4937494;29;20058;-91
2023/02/17 00:13:55;;;;;;;5.85;4.38;;;7.10;99.90;;;;;;4936583;29;20048;-91
2023/02/17 00:16:25;;;;;;;7.00;4.65;;;7.20;99.90;;;;;;4943001;28;20057;-91
2023/02/17 00:18:56;;;;;;;12.43;4.60;;;7.50;99.90;;;;;;4958689;28;20411;-93
2023/02/17 00:21:26;;;;;;;9.20;4.10;;;7.50;99.90;;;;;;4975269;28;20042;-91
2023/02/17 00:23:55;;;;;;;6.75;3.90;;;7.40;99.90;;;;;;4942543;28;20054;-92
2023/02/17 00:26:23;;;;;;;7.35;5.28;;;7.50;99.90;;;;;;4958432;28;20419;-91
2023/02/17 00:28:50;;;;;;;6.75;4.72;;;7.40;99.90;;;;;;4960706;28;20411;-91
2023/02/17 00:31:21;;;;;;;10.55;5.10;;;7.50;99.90;;;;;;4956071;29;20051;-92
2023/02/17 00:33:54;;;;;;;7.60;3.47;;;7.50;99.90;;;;;;4938499;29;20054;-93
2023/02/17 00:36:23;;;;;;;5.28;3.78;;;7.50;99.90;;;;;;4955363;29;20047;-91
2023/02/17 00:38:52;;;;;;;17.25;7.60;;;7.40;99.90;;;;;;4938834;29;20051;-91
2023/02/17 00:41:21;;;;;;;8.48;3.83;;;7.50;99.90;;;;;;4938677;29;20050;-91
2023/02/17 00:43:49;;;;;;;5.95;3.53;;;7.60;99.90;;;;;;4939233;29;20056;-90
2023/02/17 00:46:17;;;;;;;7.82;4.25;;;7.60;99.90;;;;;;4955126;29;20051;-92
2023/02/17 00:48:46;;;;;;;7.38;3.55;;;7.50;99.90;;;;;;4954758;28;20043;-93
2023/02/17 00:51:14;;;;;;;5.95;4.28;;;7.60;99.90;;;;;;4955134;28;20047;-92
2023/02/17 00:53:42;;;;;;;6.22;4.55;;;7.80;99.90;;;;;;4959657;29;20043;-91
2023/02/17 00:56:10;;;;;;;6.82;4.18;;;7.90;99.90;;;;;;4943074;29;20436;-92
2023/02/17 00:58:42;;;;;;;4.13;3.80;;;7.90;99.90;;;;;;4959605;28;20047;-91
2023/02/17 01:01:11;;;;;;;4.13;3.72;;;7.90;99.90;;;;;;4960144;28;20031;-91
2023/02/17 01:03:42;;;;;;;9.00;3.70;;;7.90;99.90;;;;;;4944019;29;20054;-92
2023/02/17 01:06:20;;;;;;;7.65;4.10;;;8.00;99.90;;;;;;4942206;29;20059;-92
2023/02/17 01:08:48;;;;;;;5.88;4.38;;;8.00;99.90;;;;;;4975122;28;20182;-91
2023/02/17 01:11:25;;;;;;;4.78;3.30;;;8.00;99.90;;;;;;4939414;28;20350;-90
2023/02/17 01:13:54;;;;;;;6.70;5.10;;;8.10;99.90;;;;;;4976684;28;20039;-90
2023/02/17 01:16:34;;;;;;;6.57;3.83;;;8.20;99.90;;;;;;4978613;28;20047;-89
2023/02/17 01:19:06;;;;;;;6.82;4.50;;;8.20;99.90;;;;;;4971002;28;20058;-91
2023/02/17 01:21:40;;;;;;;4.85;4.40;;;8.30;99.90;;;;;;4956679;28;20040;-92
2023/02/17 01:24:11;;;;;;;5.50;4.38;;;8.50;99.00;;;;;;4978953;28;20047;-92
2023/02/17 01:26:39;;;;;;;5.00;4.20;;;8.60;98.70;;;;;;4946427;28;20055;-91
2023/02/17 01:29:07;;;;;;;9.52;5.13;;;8.70;98.50;;;;;;4950777;28;20031;-90
2023/02/17 01:31:35;;;;;;;4.72;4.30;;;8.70;97.90;;;;;;4979629;28;20039;-92
2023/02/17 01:34:03;;;;;;;6.05;4.43;;;8.70;97.40;;;;;;4930470;28;20175;-90
2023/02/17 01:36:31;;;;;;;4.05;3.47;;;8.80;97.40;;;;;;4950156;28;20043;-92
2023/02/17 01:38:59;;;;;;;4.85;3.38;;;8.80;96.40;;;;;;4961368;28;20035;-91
2023/02/17 01:41:27;;;;;;;9.93;5.63;;;8.70;97.00;;;;;;4958408;28;20039;-92
2023/02/17 01:44:23;;;;;;;7.70;4.68;;;8.60;97.70;;;;;;4959896;28;20047;-91
2023/02/17 01:46:53;;;;;;;7.55;4.03;;;8.50;97.40;;;;;;4959893;28;20042;-91
2023/02/17 01:49:36;;;;;;;6.05;5.05;;;8.70;96.60;;;;;;4931236;29;20035;-91
2023/02/17 01:52:07;;;;;;;12.88;5.03;;;8.70;97.30;;;;;;4962339;28;20043;-90
2023/02/17 01:54:49;;;;;;;4.65;4.07;;;8.70;96.70;;;;;;4975822;28;20045;-90
2023/02/17 01:57:23;;;;;;;6.03;3.22;;;8.80;97.00;;;;;;4961817;28;20039;-90
2023/02/17 01:59:51;;;;;;;7.25;5.25;;;8.80;95.80;;;;;;4972404;28;20050;-90
2023/02/17 02:02:19;;;;;;;6.07;4.47;;;8.90;96.80;;;;;;4970439;28;20040;-91
2023/02/17 02:04:50;;;;;;;10.15;3.70;;;8.80;96.80;;;;;;4961130;28;20031;-89
2023/02/17 02:07:32;;;;;;;;;;;8.80;95.70;;;;;;4975449;28;20047;-91
2023/02/17 02:10:01;;;;;;;7.18;4.50;;;8.90;96.70;;;;;;4956727;28;19910;-91
2023/02/17 02:12:31;;;;;;;3.83;3.38;;;8.80;96.10;;;;;;4957501;28;20298;-90
2023/02/17 02:15:06;;;;;;;4.45;3.45;;;8.80;96.10;;;;;;4975664;28;20046;-90
2023/02/17 02:17:56;;;;;;;7.60;4.65;;;8.80;96.40;;;;;;4975303;28;20049;-90
2023/02/17 02:20:41;;;;;;;8.82;4.88;;;8.70;96.20;;;;;;4949457;28;20496;-91
2023/02/17 02:23:48;;;;;;;3.80;3.45;;;8.70;96.30;;;;;;4931979;29;20093;-92
2023/02/17 02:26:37;;;;;;;7.35;4.68;;;8.70;96.30;;;;;;4925659;29;20050;-89
2023/02/17 02:29:29;;;;;;;5.18;4.68;;;8.60;96.60;;;;;;4916655;29;20411;-91
2023/02/17 02:32:15;;;;;;;5.35;4.75;;;8.40;97.30;;;;;;4933081;28;20055;-91
2023/02/17 02:34:57;;;;;;;4.55;3.78;;;8.50;97.00;;;;;;4908684;29;20048;-92
2023/02/17 02:37:34;;;;;;;9.23;3.33;;;8.50;97.10;;;;;;4931140;29;20047;-92
2023/02/17 02:40:07;;;;;;;5.78;4.43;;;8.60;96.70;;;;;;4944432;28;20050;-90
2023/02/17 02:42:39;;;;;;;6.68;3.65;;;8.70;96.80;;;;;;4926819;29;20431;-90
2023/02/17 02:45:11;;;;;;;3.90;3.60;;;8.70;96.10;;;;;;4926211;28;20204;-89
2023/02/17 02:47:44;;;;;;;4.57;3.15;;;8.70;96.40;;;;;;4929767;29;20051;-89
2023/02/17 02:50:22;;;;;;;3.53;3.22;;;8.80;96.40;;;;;;4936876;28;20054;-92
2023/02/17 02:53:27;;;;;;;4.25;3.75;;;8.70;96.10;;;;;;4949089;28;20039;-92
2023/02/17 02:56:05;;;;;;;5.45;3.35;;;8.80;96.60;;;;;;4929176;29;20055;-90
2023/02/17 02:58:46;;;;;;;4.85;3.30;;;8.70;96.30;;;;;;4930848;29;20044;-91
2023/02/17 03:01:19;;;;;;;4.90;2.92;;;8.60;97.30;;;;;;4940973;28;20050;-91
2023/02/17 03:04:02;;;;;;;5.03;2.80;;;8.60;96.20;;;;;;4932612;29;20054;-91
2023/02/17 03:06:35;;;;;;;6.55;4.22;;;8.70;96.90;;;;;;4942663;29;20047;-90
2023/02/17 03:09:26;;;;;;;5.00;3.00;;;8.60;96.50;;;;;;4931822;29;20089;-91
2023/02/17 03:11:55;;;;;;;5.93;3.88;;;8.60;97.50;;;;;;4932827;29;20056;-91
2023/02/17 03:14:25;;;;;;;7.28;3.95;;;8.60;97.30;;;;;;4900596;29;20051;-90
2023/02/17 03:16:54;;;;;;;4.90;3.22;;;8.70;96.20;;;;;;4932207;29;20424;-92
2023/02/17 03:19:24;;;;;;;4.00;3.70;;;8.60;96.10;;;;;;4940861;29;20379;-90
2023/02/17 03:22:08;;;;;;;4.10;3.40;;;8.70;96.50;;;;;;4914860;29;20531;-92
2023/02/17 03:24:36;;;;;;;5.05;2.95;;;8.60;96.60;;;;;;4932617;29;20047;-90
2023/02/17 03:27:06;;;;;;;4.53;3.92;;;8.60;96.20;;;;;;4932074;29;20048;-91
2023/02/17 03:29:34;;;;;;;4.72;3.60;;;8.60;96.60;;;;;;4932020;29;20543;-90
2023/02/17 03:32:01;;;;;;;4.32;3.47;;;8.50;96.60;;;;;;4932300;29;20039;-91
2023/02/17 03:34:30;;;;;;;4.80;3.35;;;8.70;96.40;;;;;;4949375;28;20245;-90
2023/02/17 03:36:58;;;;;;;4.32;3.05;;;8.50;97.10;;;;;;4932654;29;20047;-89
2023/02/17 03:39:26;;;;;;;5.40;2.67;;;8.60;96.80;;;;;;4942999;29;20058;-89
2023/02/17 03:41:54;;;;;;;6.00;4.00;;;8.70;96.90;;;;;;4946798;28;20051;-90
2023/02/17 03:44:21;;;;;;;6.78;4.18;;;8.70;96.70;;;;;;4946302;29;20047;-90
2023/02/17 03:46:49;;;;;;;4.68;3.75;;;8.70;96.50;;;;;;4946038;28;20586;-90
2023/02/17 03:49:17;;;;;;;12.82;5.28;;;8.80;96.50;;;;;;4946927;28;20651;-89
2023/02/17 03:51:44;;;;;;;3.42;2.88;;;8.80;96.90;;;;;;4948808;29;20043;-89
2023/02/17 03:54:14;;;;;;;4.03;3.15;;;8.80;96.20;;;;;;4916336;29;20043;-89
2023/02/17 03:56:43;;;;;;;4.20;2.78;;;8.80;96.70;;;;;;4937104;28;20051;-76
2023/02/17 03:59:12;;;;;;;4.75;3.58;;;8.70;97.40;;;;;;4928959;29;20559;-76
2023/02/17 04:01:39;;;;;;;4.60;3.13;;;8.70;96.80;;;;;;4929784;29;20058;-76
2023/02/17 04:04:07;;;;;;;3.55;3.10;;;8.70;97.70;;;;;;4943302;29;20518;-76
2023/02/17 04:06:36;;;;;;;3.50;3.20;;;8.80;96.60;;;;;;4953504;28;20047;-76
2023/02/17 04:09:03;;;;;;;3.20;2.63;;;8.90;96.10;;;;;;4946651;28;20051;-76
2023/02/17 04:11:31;;;;;;;3.40;2.28;;;8.80;98.00;;;;;;4931888;29;20054;-76
2023/02/17 04:13:58;;;;;;;4.20;3.35;;;8.70;97.90;;;;;;4947229;28;20048;-76
2023/02/17 04:16:26;;;;;;;4.70;3.25;;;8.60;97.20;;;;;;4946384;28;20448;-76
2023/02/17 04:18:54;;;;;;;3.72;2.42;;;9.00;96.10;;;;;;4945817;29;20208;-76
2023/02/17 04:21:22;;;;;;;7.07;3.45;;;9.00;95.60;;;;;;4947748;28;20527;-76
2023/02/17 04:23:50;;;;;;;3.17;2.85;;;9.00;96.30;;;;;;4946610;29;20078;-76
2023/02/17 04:26:18;;;;;;;3.78;2.70;;;9.10;96.10;;;;;;4930115;29;20081;-76
2023/02/17 04:28:45;;;;;;;3.15;2.65;;;9.10;96.70;;;;;;4929810;28;20058;-76
2023/02/17 04:31:17;;;;;;;3.53;3.22;;;9.00;96.90;;;;;;4942381;29;20066;-76
2023/02/17 04:33:45;;;;;;;4.00;3.00;;;9.10;96.40;;;;;;4927807;29;20411;-76
2023/02/17 04:36:13;;;;;;;3.13;2.65;;;9.10;97.10;;;;;;4949101;29;20047;-76
2023/02/17 04:38:41;;;;;;;4.40;2.80;;;9.00;97.30;;;;;;4941632;29;20051;-76
2023/02/17 04:41:08;;;;;;;7.85;3.67;;;8.90;98.20;;;;;;4946268;28;20066;-76
2023/02/17 04:43:36;;;;;;;4.57;3.00;;;8.90;97.20;;;;;;4942468;29;20048;-76
2023/02/17 04:46:05;;;;;;;4.65;1.80;;;8.80;97.90;;;;;;4938677;28;20047;-77
2023/02/17 04:48:33;;;;;;;3.03;2.20;;;8.70;98.20;;;;;;4928622;29;20054;-77
2023/02/17 04:51:01;;;;;;;4.15;3.10;;;8.70;99.00;;;;;;4928852;29;20051;-76
2023/02/17 04:53:29;;;;;;;4.00;3.33;;;8.70;98.20;;;;;;4944803;28;20042;-76
2023/02/17 04:55:56;;;;;;;3.15;2.40;;;8.80;97.80;;;;;;4951128;28;20055;-77
2023/02/17 04:58:26;;;;;;;4.35;3.17;;;8.80;97.40;;;;;;4930140;29;20059;-77
2023/02/17 05:00:58;;;;;;;6.85;3.28;;;8.90;98.40;;;;;;4947301;28;20044;-77
2023/02/17 05:03:28;;;;;;;3.90;3.35;;;8.80;97.30;;;;;;4947637;29;20055;-77
2023/02/17 05:05:56;;;;;;;4.00;2.75;;;8.80;98.40;;;;;;4929774;29;20044;-76
2023/02/17 05:08:25;;;;;;;4.90;2.70;;;8.80;97.10;;;;;;4942474;29;20059;-76
2023/02/17 05:10:53;;;;;;;3.17;2.13;;;8.90;97.40;;;;;;4914716;29;20055;-76
2023/02/17 05:13:20;;;;;;;6.05;2.95;;;9.00;97.80;;;;;;4940905;28;20050;-76
2023/02/17 05:15:48;;;;;;;2.25;2.03;;;8.80;98.00;;;;;;4918422;29;20066;-77
2023/02/17 05:18:16;;;;;;;2.45;2.05;;;8.90;97.80;;;;;;4929821;29;20508;-76
2023/02/17 05:20:43;;;;;;;2.25;2.10;;;8.80;97.90;;;;;;4930291;28;20062;-76
2023/02/17 05:23:11;;;;;;;4.25;3.33;;;8.90;97.00;;;;;;4929118;29;20773;-76
2023/02/17 05:25:39;;;;;;;4.35;3.50;;;9.00;98.20;;;;;;4926924;29;20834;-76
2023/02/17 05:28:07;;;;;;;3.63;2.75;;;9.00;98.00;;;;;;4914076;29;20051;-77
2023/02/17 05:30:37;;;;;;;6.43;3.03;;;9.00;97.70;;;;;;4946888;29;20572;-77
2023/02/17 05:33:05;;;;;;;5.07;3.28;;;8.90;97.70;;;;;;4937050;28;20051;-76
2023/02/17 05:35:36;;;;;;;6.10;4.28;;;8.90;98.00;;;;;;4944549;28;20464;-77
2023/02/17 05:38:03;;;;;;;6.28;2.20;;;8.90;98.00;;;;;;4929144;29;20060;-76
2023/02/17 05:40:31;;;;;;;2.85;2.65;;;9.10;96.80;;;;;;4932570;28;20508;-77
2023/02/17 05:42:59;;;;;;;2.72;2.40;;;9.10;97.60;;;;;;4951344;29;20047;-76
2023/02/17 05:45:26;;;;;;;2.80;1.80;;;9.00;97.30;;;;;;4931762;28;20043;-76
2023/02/17 05:47:54;;;;;;;4.72;2.75;;;9.20;96.30;;;;;;4948669;29;20077;-76
2023/02/17 05:50:22;;;;;;;10.65;3.15;;;9.20;96.60;;;;;;4932985;29;20571;-76
2023/02/17 05:52:49;;;;;;;5.50;2.25;;;9.20;96.60;;;;;;4923839;29;20534;-77
2023/02/17 05:55:17;;;;;;;6.00;2.97;;;9.20;97.10;;;;;;4915427;28;20515;-76
2023/02/17 05:57:45;;;;;;;4.80;3.70;;;9.20;96.60;;;;;;4932859;29;20051;-77
2023/02/17 06:00:14;;;;;;;2.17;1.98;;;9.20;97.50;;;;;;4945245;29;20262;-76
2023/02/17 06:02:43;;;;;;;2.53;2.33;;;9.20;97.40;;;;;;4949298;28;20519;-76
2023/02/17 06:05:11;;;;;;;3.88;2.92;;;9.10;96.80;;;;;;4946160;28;20774;-76
2023/02/17 06:07:38;;;;;;;2.97;2.78;;;9.10;97.50;;;;;;4938123;29;20082;-77
2023/02/17 06:10:07;;;;;;;2.95;2.67;;;9.10;97.80;;;;;;4926543;29;20516;-76
2023/02/17 06:12:35;;;;;;;4.18;3.45;;;9.00;97.50;;;;;;4948493;28;20055;-77
2023/02/17 06:15:04;;;;;;;2.50;2.38;;;9.10;98.00;;;;;;4930901;29;20059;-77
2023/02/17 06:17:32;;;;;;;9.00;2.20;;;9.00;98.00;;;;;;4929629;29;20043;-76
2023/02/17 06:20:00;;;;;;;9.43;2.97;;;9.00;97.40;;;;;;4950346;28;20368;-77
2023/02/17 06:22:27;;;;;;;2.42;1.75;;;9.00;97.60;;;;;;4932188;29;20058;-77
2023/02/17 06:24:55;;;;;;;2.85;1.98;;;8.90;98.00;;;;;;4946371;28;20494;-76
2023/02/17 06:27:23;;;;;;;3.15;2.17;;;8.80;98.60;;;;;;4950144;29;20496;-76
2023/02/17 06:29:51;;;;;;;4.80;2.97;;;8.80;98.80;;;;;;4949852;28;20511;-76
2023/02/17 06:32:18;;;;;;;2.00;1.80;;;8.80;99.00;;;;;;4932815;29;20644;-76
2023/02/17 06:34:46;;;;;;;4.25;3.88;;;8.90;97.80;;;;;;4951142;28;20051;-75
2023/02/17 06:37:14;;;;;;;2.85;2.65;;;9.00;97.50;;;;;;4951507;28;20047;-75
2023/02/17 06:39:44;;;;;;;2.17;2.00;;;9.10;96.90;;;;;;4946241;28;20525;-75
2023/02/17 06:42:12;;;;;;;2.35;1.90;;;9.30;97.00;;;;;;4932054;29;20257;-76
2023/02/17 06:44:40;;;;;;;3.15;1.92;;;9.30;96.40;;;;;;4925856;29;20051;-76
2023/02/17 06:47:08;;;;;;;3.45;2.15;;;9.40;97.30;;;;;;4941450;29;20055;-76
2023/02/17 06:49:35;;;;;;;2.53;2.20;;;9.40;97.10;;;;;;4942983;28;20051;-76
2023/02/17 06:52:03;;;;;;;3.35;3.08;;;9.40;97.10;;;;;;4932351;29;20599;-76
2023/02/17 06:54:31;;;;;;;2.92;1.77;;;9.50;97.00;;;;;;4917836;28;20504;-76
2023/02/17 06:57:00;;;;;;;6.40;2.80;;;9.50;97.10;;;;;;4945405;28;21011;-76
2023/02/17 06:59:30;;;;;;;3.85;1.98;;;9.50;97.20;;;;;;4949411;28;20066;-75
2023/02/17 07:01:57;;;;;;;5.15;3.33;;;9.60;96.50;;;;;;4941930;28;20062;-76
2023/02/17 07:04:28;;;;;;;2.63;1.65;;;9.70;96.80;;;;;;4914347;28;20058;-76
2023/02/17 07:06:56;;;;;;;2.95;2.22;;;9.60;97.60;;;;;;4951491;28;20059;-76
2023/02/17 07:09:24;;;;;;;4.55;2.78;;;9.70;97.90;;;;;;4948423;28;20050;-76
2023/02/17 07:11:52;;;;;;;6.47;1.45;;;9.60;98.70;;;;;;4925277;29;20043;-76
2023/02/17 07:14:21;;;;;;;3.28;2.20;;;9.50;99.90;;;;;;4931037;28;20051;-76
2023/02/17 07:16:51;;;;;;;3.50;1.88;;;9.30;99.90;;;;;;4932191;29;20054;-76
2023/02/17 07:19:19;;;;;;;5.57;2.80;;;9.20;99.90;;;;;;4946175;28;20059;-75
2023/02/17 07:21:46;;;;;;;3.50;2.83;;;9.30;99.90;;;;;;4929749;29;20047;-76
2023/02/17 07:24:15;;;;;;;4.93;1.63;;;9.30;99.90;;;;;;4930189;29;20058;-76
2023/02/17 07:26:45;;;;;;;3.47;2.08;;;9.40;99.90;;;;;;4931528;29;20051;-76
2023/02/17 07:29:12;;;;;;;4.07;1.90;;;9.40;99.90;;;;;;4927915;29;20051;-76
2023/02/17 07:31:40;;;;;;;6.55;3.42;;;9.40;99.90;;;;;;4943337;29;20647;-76
2023/02/17 07:34:07;;;;;;;3.58;2.00;;;9.40;99.90;;;;;;4924883;29;20055;-75
2023/02/17 07:36:35;;;;;;;4.72;1.88;;;9.40;99.90;;;;;;4947255;28;20563;-76
2023/02/17 07:39:03;;;;;;;2.45;2.15;;;9.50;99.90;;;;;;4941454;29;20055;-76
2023/02/17 07:41:32;;;;;;;5.13;3.63;;;9.50;99.90;;;;;;4944812;28;20571;-76
2023/02/17 07:44:08;;;;;;;4.38;2.17;;;9.60;99.90;;;;;;4926673;29;20531;-75
2023/02/17 07:46:39;;;;;;;7.80;2.80;;;9.70;99.90;;;;;;4929996;29;20050;-76
2023/02/17 07:49:07;;;;;;;2.33;1.85;;;9.80;99.90;;;;;;4930359;29;20385;-76
2023/02/17 07:51:35;;;;;;;6.57;2.78;;;9.90;99.90;;;;;;4929478;29;20059;-76
2023/02/17 07:54:02;;;;;;;4.20;2.15;;;10.00;99.90;;;;;;4949495;28;20544;-76
2023/02/17 07:56:32;;;;;;;6.53;2.25;;;10.10;99.90;;;;;;4945731;28;20054;-76
2023/02/17 07:59:00;;;;;;;3.25;2.40;;;10.10;99.90;;;;;;4945421;29;20451;-76
2023/02/17 08:01:28;;;;;;;6.07;2.72;;;10.20;99.90;;;;;;4946537;28;20047;-76
2023/02/17 08:03:56;;;;;;;3.58;1.90;;;10.30;99.90;;;;;;4915095;29;20456;-76
2023/02/17 08:06:25;;;;;;;5.32;3.35;;;10.40;99.90;;;;;;4946615;28;20050;-76
2023/02/17 08:14:28;;;;;;;4.38;1.92;;;10.50;99.90;;;;;;4924988;29;20065;-76
2023/02/17 08:16:57;;;;;;;4.70;3.00;;;10.50;99.90;;;;;;4913563;29;20043;-76
2023/02/17 08:19:26;;;;;;;5.40;2.40;;;10.60;99.90;;;;;;4946188;29;20054;-76
2023/02/17 08:22:11;;;;;;;7.93;3.10;;;10.50;99.90;;;;;;4947465;29;20412;-76
2023/02/17 08:24:39;;;;;;;16.73;2.97;;;10.70;99.90;;;;;;4939746;28;20054;-75
2023/02/17 08:27:06;;;;;;;11.40;2.83;;;10.70;99.90;;;;;;4946661;29;20059;-76
2023/02/17 08:29:34;;;;;;;5.00;2.45;;;10.80;99.90;;;;;;4946689;28;20043;-76
2023/02/17 08:32:02;;;;;;;3.10;2.35;;;10.80;99.90;;;;;;4944649;29;20078;-76
2023/02/17 08:34:32;;;;;;;4.00;2.67;;;10.90;99.90;;;;;;4941936;29;20207;-76
2023/02/17 08:37:01;;;;;;;3.40;2.78;;;11.00;99.90;;;;;;4929739;29;20047;-76
2023/02/17 08:39:29;;;;;;;12.40;3.60;;;11.10;99.90;;;;;;4947342;29;20051;-76
2023/02/17 08:41:57;;;;;;;5.63;2.42;;;11.30;99.90;;;;;;4942984;28;20050;-76
2023/02/17 08:44:25;;;;;;;2.90;1.98;;;11.30;99.90;;;;;;4930517;28;20054;-78
2023/02/17 08:46:53;;;;;;;3.40;2.72;;;11.30;99.90;;;;;;4931178;29;20135;-76
2023/02/17 08:49:25;;;;;;;12.52;3.10;;;11.30;99.90;;;;;;4943117;29;20040;-76
2023/02/17 08:51:53;;;;;;;12.70;3.25;;;11.50;99.90;;;;;;4938429;29;20423;-76
2023/02/17 08:54:21;;;;;;;6.07;2.67;;;11.50;99.90;;;;;;4946057;28;20063;-76
2023/02/17 08:56:49;;;;;;;7.50;2.97;;;11.50;99.90;;;;;;4939674;28;20056;-75
2023/02/17 08:59:16;;;;;;;8.65;2.47;;;11.60;99.90;;;;;;4946691;29;20040;-76
2023/02/17 09:01:44;;;;;;;8.55;2.90;;;11.50;99.90;;;;;;4941403;28;20039;-75
2023/02/17 09:04:13;;;;;;;12.25;3.17;;;11.50;99.90;;;;;;4933487;29;20051;-76
2023/02/17 09:06:48;;;;;;;22.13;3.45;;;11.30;99.90;;;;;;4927438;29;20054;-76
2023/02/17 09:09:19;;;;;;;7.63;2.65;;;11.30;99.90;;;;;;4953674;28;20051;-76
2023/02/17 09:11:47;;;;;;;6.47;3.13;;;10.80;99.90;;;;;;4937960;28;20059;-76
2023/02/17 09:14:15;;;;;;;5.50;2.30;;;10.80;99.90;;;;;;4956465;29;20043;-76
2023/02/17 09:16:43;;;;;;;6.22;3.50;;;10.80;99.90;;;;;;4958433;28;20066;-76
2023/02/17 09:19:10;;;;;;;5.70;2.63;;;10.90;99.90;;;;;;4928502;29;20063;-76
2023/02/17 09:22:43;;;;;;;5.13;2.13;;;11.00;99.90;;;;;;4934057;29;20054;-76
2023/02/17 09:25:11;;;;;;;4.85;3.00;;;11.20;99.90;;;;;;4940766;29;20047;-76
2023/02/17 09:27:38;;;;;;;7.97;2.78;;;11.20;99.90;;;;;;4958458;29;20043;-76
2023/02/17 09:30:07;;;;;;;4.78;2.08;;;11.20;99.90;;;;;;4957467;29;20046;-76
2023/02/17 09:32:34;;;;;;;4.97;2.67;;;11.20;99.90;;;;;;4958193;28;20059;-76
2023/02/17 09:35:04;;;;;;;4.90;2.42;;;11.10;99.90;;;;;;4957838;29;20051;-76
2023/02/17 09:37:32;;;;;;;5.97;2.83;;;11.10;99.90;;;;;;4957773;29;20412;-77
2023/02/17 09:40:00;;;;;;;9.40;2.92;;;11.10;99.90;;;;;;4925162;29;20054;-76
2023/02/17 09:42:28;;;;;;;6.15;3.13;;;11.10;99.90;;;;;;4957941;28;20050;-76
2023/02/17 09:45:03;;;;;;;10.65;3.33;;;11.20;99.90;;;;;;4926430;29;20071;-75
2023/02/17 09:47:39;;;;;;;7.07;2.67;;;11.10;99.90;;;;;;4957558;29;20078;-75
2023/02/17 09:50:17;;;;;;;14.68;2.13;;;11.10;99.90;;;;;;4957255;28;20039;-76
2023/02/17 09:52:52;;;;;;;6.82;2.67;;;11.10;99.90;;;;;;4957598;29;20044;-76
2023/02/17 09:55:28;;;;;;;7.80;3.50;;;11.10;99.90;;;;;;4926746;29;20412;-75
2023/02/17 09:58:02;;;;;;;2.92;2.30;;;11.10;99.90;;;;;;4929366;29;20058;-77
2023/02/17 10:00:37;;;;;;;7.30;2.05;;;11.20;99.90;;;;;;4937178;29;20051;-76
2023/02/17 10:03:11;;;;;;;9.32;2.40;;;11.20;99.90;;;;;;4922787;29;20408;-76
2023/02/17 10:05:57;;;;;;;9.32;2.65;;;11.20;99.90;;;;;;4948179;28;20055;-76
2023/02/17 10:08:34;;;;;;;3.92;2.28;;;11.30;99.90;;;;;;4979554;28;20286;-76
2023/02/17 10:11:17;;;;;;;7.97;3.05;;;11.40;99.90;;;;;;4954998;28;20027;-76
2023/02/17 10:13:45;;;;;;;4.70;2.28;;;11.40;99.90;;;;;;4949206;28;20024;-77
2023/02/17 10:16:20;;;;;;;3.58;1.77;;;11.40;99.90;;;;;;4958421;29;20047;-77
2023/02/17 10:18:55;;;;;;;3.30;1.88;;;11.40;99.90;;;;;;4954491;28;20046;-77
2023/02/17 10:21:32;;;;;;;7.68;2.30;;;11.40;99.90;;;;;;4957660;28;20035;-77
2023/02/17 10:24:00;;;;;;;3.50;2.10;;;11.40;99.90;;;;;;4957881;28;20039;-77
2023/02/17 10:26:49;;;;;;;9.45;3.17;;;11.50;99.90;;;;;;4955992;28;20341;-77
2023/02/17 10:29:23;;;;;;;3.75;2.60;;;11.80;99.90;;;;;;4956445;28;20042;-77
2023/02/17 10:31:56;;;;;;;2.80;2.25;;;12.20;99.90;;;;;;4958426;28;20043;-77
2023/02/17 10:34:41;;;;;;;4.55;2.45;;;12.20;99.90;;;;;;4956897;28;20040;-76
2023/02/17 10:37:39;;;;;;;2.25;2.05;;;12.20;99.90;;;;;;4956888;28;20457;-77
2023/02/17 10:40:20;;;;;;;9.00;2.97;;;12.20;99.90;;;;;;4953665;28;20043;-76
2023/02/17 10:42:55;;;;;;;10.40;2.40;;;12.20;99.90;;;;;;4951443;28;20044;-77
2023/02/17 10:45:34;;;;;;;2.72;2.28;;;12.30;99.90;;;;;;4959051;28;20036;-77
2023/02/17 10:48:13;;;;;;;11.20;3.03;;;12.40;99.90;;;;;;4958732;29;20039;-77
2023/02/17 10:50:43;;;;;;;6.60;3.17;;;12.50;99.90;;;;;;4955519;28;20054;-77
2023/02/17 10:53:18;;;;;;;3.95;2.53;;;12.40;99.90;;;;;;4956861;28;20151;-77
2023/02/17 10:55:52;;;;;;;4.20;2.65;;;12.30;99.90;;;;;;4955259;28;20225;-77
2023/02/17 10:58:49;;;;;;;7.47;2.63;;;12.30;99.90;;;;;;4956009;28;20032;-77
2023/02/17 11:01:17;;;;;;;3.60;2.70;;;12.20;99.90;;;;;;4948766;28;20032;-77
2023/02/17 11:03:45;;;;;;;2.78;2.35;;;12.20;99.90;;;;;;4957228;28;20048;-76
2023/02/17 11:06:21;;;;;;;4.47;2.15;;;12.20;99.90;;;;;;4953353;28;20035;-77
2023/02/17 11:08:57;;;;;;;5.63;1.92;;;12.40;99.90;;;;;;4924626;28;20379;-76
2023/02/17 11:11:31;;;;;;;2.20;2.08;;;12.60;99.90;;;;;;4953671;28;20567;-77
2023/02/17 11:14:12;;;;;;;2.10;1.90;;;12.90;99.90;;;;;;4947660;29;20731;-77
2023/02/17 11:16:47;;;;;;;2.30;2.15;;;13.20;99.90;;;;;;4938477;28;20409;-77
2023/02/17 11:19:24;;;;;;;2.50;2.35;;;13.30;99.90;;;;;;4945142;28;20519;-77
2023/02/17 11:21:54;;;;;;;3.10;2.40;;;13.00;99.90;;;;;;4935390;28;20046;-76
2023/02/17 11:24:23;;;;;;;5.93;2.97;;;12.90;99.90;;;;;;4939445;28;20055;-76
2023/02/17 11:27:00;;;;;;;10.07;2.22;;;12.80;99.90;;;;;;4909127;28;20293;-76
2023/02/17 11:29:29;;;;;;;9.80;3.00;;;12.80;99.90;;;;;;4950632;28;20054;-76
2023/02/17 11:32:00;;;;;;;4.10;2.15;;;12.70;99.90;;;;;;4948381;29;20400;-77
2023/02/17 11:34:31;;;;;;;7.65;2.10;;;12.70;99.90;;;;;;4927664;29;20500;-76
2023/02/17 11:37:08;;;;;;;8.32;1.80;;;12.70;99.90;;;;;;4953034;28;20420;-77
2023/02/17 11:39:44;;;;;;;6.72;2.17;;;12.80;99.90;;;;;;4932653;29;20424;-77
2023/02/17 11:42:23;;;;;;;4.68;2.47;;;12.90;99.90;;;;;;4922373;29;20051;-77
2023/02/17 11:44:52;;;;;;;4.35;1.95;;;12.90;99.90;;;;;;4952860;28;20043;-77
2023/02/17 11:47:52;;;;;;;2.03;1.63;;;12.80;99.90;;;;;;4942225;28;20062;-77
2023/02/17 11:50:23;;;;;;;2.05;1.48;;;12.90;99.90;;;;;;4943154;29;20047;-77
2023/02/17 11:53:20;;;;;;;3.83;1.50;;;12.90;99.90;;;;;;4913794;29;20058;-77
2023/02/17 11:56:11;;;;;;;6.28;1.80;;;12.80;99.90;;;;;;4946495;29;20075;-77
2023/02/17 11:59:12;;;;;;;4.93;2.20;;;12.90;99.90;;;;;;4952976;28;20047;-76
2023/02/17 12:02:02;;;;;;;5.43;3.17;;;12.90;99.90;;;;;;4952006;28;20043;-77
2023/02/17 12:04:33;;;;;;;6.15;2.10;;;12.90;99.90;;;;;;4938367;28;20492;-78
2023/02/17 12:07:18;;;;;;;2.58;2.20;;;12.90;99.90;;;;;;4941642;29;20047;-77
2023/02/17 12:09:58;;;;;;;11.60;2.55;;;12.80;99.90;;;;;;4929817;28;20066;-77
2023/02/17 12:12:38;;;;;;;4.72;2.22;;;12.80;99.90;;;;;;4938441;28;20062;-77
2023/02/17 12:15:33;;;;;;;3.03;1.73;;;12.70;99.90;;;;;;4947368;29;20063;-76
2023/02/17 12:18:23;;;;;;;4.22;2.10;;;12.70;99.90;;;;;;4945349;28;20054;-76
2023/02/17 12:21:15;;;;;;;3.25;1.80;;;12.80;99.90;;;;;;4928613;29;20059;-77
2023/02/17 12:24:29;;;;;;;1.20;1.20;;;12.90;99.90;;;;;;4944094;29;20051;-76
2023/02/17 12:27:03;;;;;;;4.32;2.80;;;12.80;99.90;;;;;;4921908;29;20062;-76
2023/02/17 12:29:52;;;;;;;5.88;2.05;;;12.80;99.90;;;;;;4914916;29;20400;-77
2023/02/17 12:32:38;;;;;;;2.60;1.77;;;13.10;99.90;;;;;;4943694;29;20051;-77
2023/02/17 12:35:21;;;;;;;2.92;1.33;;;13.30;99.90;;;;;;4882734;29;20044;-78
2023/02/17 12:37:56;;;;;;;5.07;2.70;;;13.40;99.90;;;;;;4946980;28;20047;-77
2023/02/17 12:40:38;;;;;;;3.22;2.20;;;13.50;99.90;;;;;;4946067;28;20058;-77
2023/02/17 12:43:28;;;;;;;5.75;2.00;;;13.50;99.90;;;;;;4948386;29;20051;-77
2023/02/17 12:45:59;;;;;;;5.20;2.40;;;13.50;99.90;;;;;;4949290;28;20051;-77
2023/02/17 12:48:42;;;;;;;3.97;1.85;;;13.50;99.90;;;;;;4931879;28;20063;-78
2023/02/17 12:51:17;;;;;;;7.00;2.08;;;13.60;99.90;;;;;;4946267;29;20427;-77
2023/02/17 12:54:02;;;;;;;1.88;1.60;;;13.10;99.90;;;;;;4944222;29;20045;-77
2023/02/17 12:56:38;;;;;;;1.70;1.60;;;12.80;99.90;;;;;;4933471;28;20066;-77
2023/02/17 12:59:28;;;;;;;5.35;2.17;;;12.70;99.90;;;;;;4933068;29;20260;-76
2023/02/17 13:02:05;;;;;;;3.40;1.77;;;12.70;99.90;;;;;;4931830;29;20054;-77
2023/02/17 13:04:35;;;;;;;3.42;2.00;;;12.80;99.90;;;;;;4940145;28;20055;-77
2023/02/17 13:07:27;;;;;;;2.13;1.67;;;13.00;99.90;;;;;;4921280;29;20389;-77
2023/02/17 13:09:56;;;;;;;2.10;2.00;;;13.00;99.90;;;;;;4928692;29;20056;-77
2023/02/17 13:12:24;;;;;;;2.38;2.17;;;13.20;99.90;;;;;;4922157;28;20051;-77
2023/02/17 13:14:51;;;;;;;8.10;2.60;;;13.20;99.90;;;;;;4924855;29;20856;-77
2023/02/17 13:17:29;;;;;;;1.83;1.65;;;13.20;99.90;;;;;;4924391;29;20503;-76
2023/02/17 13:20:09;;;;;;;1.92;1.50;;;13.20;99.90;;;;;;4934961;29;20059;-76
2023/02/17 13:22:41;;;;;;;2.80;2.17;;;13.10;99.90;;;;;;4922234;29;20058;-77
2023/02/17 13:25:32;;;;;;;4.47;2.50;;;13.00;99.90;;;;;;4933757;29;20416;-76
2023/02/17 13:28:17;;;;;;;2.05;1.42;;;12.90;99.90;;;;;;4937549;29;20082;-76